sensor_id;sensor_type;location;lat;lon;timestamp;temperature;humidity
25140;DHT22;39015;48.106;-1.682;2023-02-21T07:24:55;12.10;66.60
25140;DHT22;39015;48.106;-1.682;2023-02-21T07:27:22;12.00;66.70
25140;DHT22;39015;48.106;-1.682;2023-02-21T07:29:50;12.00;66.70
25140;DHT22;39015;48.106;-1.682;2023-02-21T07:32:17;12.00;66.80
25140;DHT22;39015;48.106;-1.682;2023-02-21T07:34:45;12.00;66.70
25140;DHT22;39015;48.106;-1.682;2023-02-21T07:37:12;12.00;66.70
25140;DHT22;39015;48.106;-1.682;2023-02-21T07:39:40;12.00;66.80
25140;DHT22;39015;48.106;-1.682;2023-02-21T07:42:09;12.00;66.90
25140;DHT22;39015;48.106;-1.682;2023-02-21T07:44:36;12.00;66.90
25140;DHT22;39015;48.106;-1.682;2023-02-21T07:47:04;12.00;67.00
25140;DHT22;39015;48.106;-1.682;2023-02-21T07:49:31;12.00;67.00
25140;DHT22;39015;48.106;-1.682;2023-02-21T07:52:03;12.00;67.10
25140;DHT22;39015;48.106;-1.682;2023-02-21T07:54:30;12.00;67.20
25140;DHT22;39015;48.106;-1.682;2023-02-21T07:57:01;12.00;67.30
25140;DHT22;39015;48.106;-1.682;2023-02-21T07:59:33;12.00;67.40
25140;DHT22;39015;48.106;-1.682;2023-02-21T08:02:03;12.00;67.30
25140;DHT22;39015;48.106;-1.682;2023-02-21T08:04:30;12.00;67.30
25140;DHT22;39015;48.106;-1.682;2023-02-21T08:06:59;12.00;67.40
25140;DHT22;39015;48.106;-1.682;2023-02-21T08:09:29;12.00;67.50
25140;DHT22;39015;48.106;-1.682;2023-02-21T08:12:02;12.00;67.40
25140;DHT22;39015;48.106;-1.682;2023-02-21T08:14:37;12.00;67.40
25140;DHT22;39015;48.106;-1.682;2023-02-21T08:17:12;12.00;67.40
25140;DHT22;39015;48.106;-1.682;2023-02-21T08:19:43;12.00;68.30
25140;DHT22;39015;48.106;-1.682;2023-02-21T08:22:13;11.90;67.40
25140;DHT22;39015;48.106;-1.682;2023-02-21T08:24:49;12.00;67.60
25140;DHT22;39015;48.106;-1.682;2023-02-21T08:27:20;12.00;67.60
25140;DHT22;39015;48.106;-1.682;2023-02-21T08:29:52;11.90;67.60
25140;DHT22;39015;48.106;-1.682;2023-02-21T08:32:19;11.90;67.60
25140;DHT22;39015;48.106;-1.682;2023-02-21T08:34:47;12.00;67.70
25140;DHT22;39015;48.106;-1.682;2023-02-21T08:37:15;11.90;67.60
25140;DHT22;39015;48.106;-1.682;2023-02-21T08:39:45;11.90;67.60
25140;DHT22;39015;48.106;-1.682;2023-02-21T08:42:12;11.90;67.80
25140;DHT22;39015;48.106;-1.682;2023-02-21T08:44:42;11.90;67.70
25140;DHT22;39015;48.106;-1.682;2023-02-21T08:47:11;11.90;67.90
25140;DHT22;39015;48.106;-1.682;2023-02-21T08:49:43;11.90;67.90
25140;DHT22;39015;48.106;-1.682;2023-02-21T08:52:13;11.90;68.00
25140;DHT22;39015;48.106;-1.682;2023-02-21T08:54:48;11.90;68.10
25140;DHT22;39015;48.106;-1.682;2023-02-21T08:57:16;11.90;68.10
25140;DHT22;39015;48.106;-1.682;2023-02-21T08:59:46;11.80;68.20
25140;DHT22;39015;48.106;-1.682;2023-02-21T09:02:17;11.90;68.40
25140;DHT22;39015;48.106;-1.682;2023-02-21T09:04:45;11.80;68.40
25140;DHT22;39015;48.106;-1.682;2023-02-21T09:07:13;11.90;68.50
25140;DHT22;39015;48.106;-1.682;2023-02-21T09:09:40;11.90;68.50
25140;DHT22;39015;48.106;-1.682;2023-02-21T09:12:07;11.90;68.50
25140;DHT22;39015;48.106;-1.682;2023-02-21T09:14:34;11.90;68.50
25140;DHT22;39015;48.106;-1.682;2023-02-21T09:17:02;11.90;68.50
25140;DHT22;39015;48.106;-1.682;2023-02-21T09:19:31;11.90;68.60
25140;DHT22;39015;48.106;-1.682;2023-02-21T09:21:58;11.90;68.80
25140;DHT22;39015;48.106;-1.682;2023-02-21T09:24:26;11.90;68.90
25140;DHT22;39015;48.106;-1.682;2023-02-21T09:26:54;11.90;68.90
25140;DHT22;39015;48.106;-1.682;2023-02-21T09:29:23;11.90;69.00
25140;DHT22;39015;48.106;-1.682;2023-02-21T09:31:51;11.90;69.10
25140;DHT22;39015;48.106;-1.682;2023-02-21T09:34:18;11.90;69.10
25140;DHT22;39015;48.106;-1.682;2023-02-21T09:36:49;12.00;69.20
25140;DHT22;39015;48.106;-1.682;2023-02-21T09:39:17;12.00;69.30
25140;DHT22;39015;48.106;-1.682;2023-02-21T09:41:45;12.00;69.30
25140;DHT22;39015;48.106;-1.682;2023-02-21T09:44:16;12.00;69.30
25140;DHT22;39015;48.106;-1.682;2023-02-21T09:46:46;12.00;69.40
25140;DHT22;39015;48.106;-1.682;2023-02-21T09:49:18;12.10;69.50
25140;DHT22;39015;48.106;-1.682;2023-02-21T09:51:49;12.10;69.60
25140;DHT22;39015;48.106;-1.682;2023-02-21T09:54:23;12.10;69.60
25140;DHT22;39015;48.106;-1.682;2023-02-21T09:56:51;12.20;69.60
25140;DHT22;39015;48.106;-1.682;2023-02-21T09:59:19;12.20;69.70
25140;DHT22;39015;48.106;-1.682;2023-02-21T10:01:54;12.20;69.70
25140;DHT22;39015;48.106;-1.682;2023-02-21T10:04:34;12.20;69.70
25140;DHT22;39015;48.106;-1.682;2023-02-21T10:07:11;12.30;69.80
25140;DHT22;39015;48.106;-1.682;2023-02-21T10:09:44;12.30;69.80
25140;DHT22;39015;48.106;-1.682;2023-02-21T10:12:23;12.30;70.00
25140;DHT22;39015;48.106;-1.682;2023-02-21T10:15:04;12.30;70.00
25140;DHT22;39015;48.106;-1.682;2023-02-21T10:17:43;12.30;70.20
25140;DHT22;39015;48.106;-1.682;2023-02-21T10:20:14;12.30;70.30
25140;DHT22;39015;48.106;-1.682;2023-02-21T10:22:49;12.30;70.40
25140;DHT22;39015;48.106;-1.682;2023-02-21T10:25:22;12.30;70.50
25140;DHT22;39015;48.106;-1.682;2023-02-21T10:27:51;12.40;70.70
25140;DHT22;39015;48.106;-1.682;2023-02-21T10:30:26;12.40;70.80
25140;DHT22;39015;48.106;-1.682;2023-02-21T10:32:55;12.40;70.90
25140;DHT22;39015;48.106;-1.682;2023-02-21T10:35:23;12.40;70.90
25140;DHT22;39015;48.106;-1.682;2023-02-21T10:37:53;12.40;70.90
25140;DHT22;39015;48.106;-1.682;2023-02-21T10:40:33;12.40;71.10
25140;DHT22;39015;48.106;-1.682;2023-02-21T10:43:12;12.40;71.20
25140;DHT22;39015;48.106;-1.682;2023-02-21T10:45:46;12.40;71.20
25140;DHT22;39015;48.106;-1.682;2023-02-21T10:48:19;12.50;71.30
25140;DHT22;39015;48.106;-1.682;2023-02-21T10:50:51;12.50;71.30
25140;DHT22;39015;48.106;-1.682;2023-02-21T10:53:32;12.50;71.40
25140;DHT22;39015;48.106;-1.682;2023-02-21T10:56:08;12.50;71.40
25140;DHT22;39015;48.106;-1.682;2023-02-21T10:58:39;12.50;71.50
25140;DHT22;39015;48.106;-1.682;2023-02-21T11:01:12;12.50;71.50
25140;DHT22;39015;48.106;-1.682;2023-02-21T11:03:43;12.60;71.50
25140;DHT22;39015;48.106;-1.682;2023-02-21T11:06:21;12.60;71.60
25140;DHT22;39015;48.106;-1.682;2023-02-21T11:08:51;12.60;71.60
25140;DHT22;39015;48.106;-1.682;2023-02-21T11:11:31;12.60;71.60
25140;DHT22;39015;48.106;-1.682;2023-02-21T11:14:23;12.60;71.80
25140;DHT22;39015;48.106;-1.682;2023-02-21T11:17:14;12.60;71.80
25140;DHT22;39015;48.106;-1.682;2023-02-21T11:19:46;12.60;72.00
25140;DHT22;39015;48.106;-1.682;2023-02-21T11:22:16;12.60;72.10
25140;DHT22;39015;48.106;-1.682;2023-02-21T11:24:48;12.70;72.20
25140;DHT22;39015;48.106;-1.682;2023-02-21T11:27:17;12.70;72.30
25140;DHT22;39015;48.106;-1.682;2023-02-21T11:29:46;12.70;72.40
25140;DHT22;39015;48.106;-1.682;2023-02-21T11:32:25;12.80;72.60
25140;DHT22;39015;48.106;-1.682;2023-02-21T11:35:01;12.80;72.70
25140;DHT22;39015;48.106;-1.682;2023-02-21T11:37:30;12.80;72.60
25140;DHT22;39015;48.106;-1.682;2023-02-21T11:40:01;12.80;72.50
25140;DHT22;39015;48.106;-1.682;2023-02-21T11:42:32;12.80;72.40
25140;DHT22;39015;48.106;-1.682;2023-02-21T11:45:18;12.90;72.60
25140;DHT22;39015;48.106;-1.682;2023-02-21T11:47:54;12.90;72.50
25140;DHT22;39015;48.106;-1.682;2023-02-21T11:50:27;12.90;72.60
25140;DHT22;39015;48.106;-1.682;2023-02-21T11:53:03;12.90;72.50
25140;DHT22;39015;48.106;-1.682;2023-02-21T11:55:32;12.90;72.40
25140;DHT22;39015;48.106;-1.682;2023-02-21T11:58:05;12.90;72.50
25140;DHT22;39015;48.106;-1.682;2023-02-21T12:00:42;12.90;72.70
25140;DHT22;39015;48.106;-1.682;2023-02-21T12:03:42;12.90;72.80
25140;DHT22;39015;48.106;-1.682;2023-02-21T12:06:25;13.00;72.80
25140;DHT22;39015;48.106;-1.682;2023-02-21T12:08:58;12.90;72.80
25140;DHT22;39015;48.106;-1.682;2023-02-21T12:11:37;12.90;72.90
25140;DHT22;39015;48.106;-1.682;2023-02-21T12:14:20;12.90;73.00
25140;DHT22;39015;48.106;-1.682;2023-02-21T12:17:00;12.90;73.00
25140;DHT22;39015;48.106;-1.682;2023-02-21T12:19:46;12.90;73.00
25140;DHT22;39015;48.106;-1.682;2023-02-21T12:22:31;12.90;73.20
25140;DHT22;39015;48.106;-1.682;2023-02-21T12:25:10;12.90;73.20
25140;DHT22;39015;48.106;-1.682;2023-02-21T12:27:44;12.90;73.20
25140;DHT22;39015;48.106;-1.682;2023-02-21T12:30:32;12.90;73.20
25140;DHT22;39015;48.106;-1.682;2023-02-21T12:33:12;12.90;73.20
25140;DHT22;39015;48.106;-1.682;2023-02-21T12:35:57;12.90;73.20
25140;DHT22;39015;48.106;-1.682;2023-02-21T12:38:34;12.90;73.20
25140;DHT22;39015;48.106;-1.682;2023-02-21T12:41:08;12.90;74.20
25140;DHT22;39015;48.106;-1.682;2023-02-21T12:43:49;12.90;73.40
25140;DHT22;39015;48.106;-1.682;2023-02-21T12:46:24;12.90;73.50
25140;DHT22;39015;48.106;-1.682;2023-02-21T12:48:56;12.90;73.60
25140;DHT22;39015;48.106;-1.682;2023-02-21T12:51:27;12.90;73.60
25140;DHT22;39015;48.106;-1.682;2023-02-21T12:54:00;12.90;74.70
25140;DHT22;39015;48.106;-1.682;2023-02-21T12:56:31;12.90;73.80
25140;DHT22;39015;48.106;-1.682;2023-02-21T12:59:05;13.00;74.00
25140;DHT22;39015;48.106;-1.682;2023-02-21T13:01:40;13.00;74.00
25140;DHT22;39015;48.106;-1.682;2023-02-21T13:04:17;13.00;74.00
25140;DHT22;39015;48.106;-1.682;2023-02-21T13:06:51;13.10;73.90
25140;DHT22;39015;48.106;-1.682;2023-02-21T13:09:29;13.10;74.00
25140;DHT22;39015;48.106;-1.682;2023-02-21T13:12:03;13.10;74.00
25140;DHT22;39015;48.106;-1.682;2023-02-21T13:14:40;13.10;74.00
25140;DHT22;39015;48.106;-1.682;2023-02-21T13:17:11;13.20;74.00
25140;DHT22;39015;48.106;-1.682;2023-02-21T13:19:45;13.20;74.10
25140;DHT22;39015;48.106;-1.682;2023-02-21T13:22:33;13.20;74.00
25140;DHT22;39015;48.106;-1.682;2023-02-21T13:25:36;13.20;74.10
25140;DHT22;39015;48.106;-1.682;2023-02-21T13:28:09;13.20;74.00
25140;DHT22;39015;48.106;-1.682;2023-02-21T13:30:43;13.20;73.90
25140;DHT22;39015;48.106;-1.682;2023-02-21T13:33:24;13.20;74.10
25140;DHT22;39015;48.106;-1.682;2023-02-21T13:35:52;13.20;74.00
25140;DHT22;39015;48.106;-1.682;2023-02-21T13:38:22;13.30;74.10
25140;DHT22;39015;48.106;-1.682;2023-02-21T13:40:53;13.30;74.10
25140;DHT22;39015;48.106;-1.682;2023-02-21T13:43:30;13.30;74.00
25140;DHT22;39015;48.106;-1.682;2023-02-21T13:49:47;13.30;74.10
25140;DHT22;39015;48.106;-1.682;2023-02-21T13:53:00;13.30;74.20
25140;DHT22;39015;48.106;-1.682;2023-02-21T13:55:33;13.30;74.40
25140;DHT22;39015;48.106;-1.682;2023-02-21T14:01:21;13.30;74.70
25140;DHT22;39015;48.106;-1.682;2023-02-21T14:03:50;13.20;74.50
25140;DHT22;39015;48.106;-1.682;2023-02-21T14:06:31;13.30;74.60
25140;DHT22;39015;48.106;-1.682;2023-02-21T14:09:03;13.30;74.60
25140;DHT22;39015;48.106;-1.682;2023-02-21T14:11:36;13.30;74.70
25140;DHT22;39015;48.106;-1.682;2023-02-21T14:14:19;13.30;74.90
25140;DHT22;39015;48.106;-1.682;2023-02-21T14:16:50;13.30;74.80
25140;DHT22;39015;48.106;-1.682;2023-02-21T14:19:26;13.30;74.70
25140;DHT22;39015;48.106;-1.682;2023-02-21T14:22:03;13.30;74.90
25140;DHT22;39015;48.106;-1.682;2023-02-21T14:24:34;13.30;74.80
25140;DHT22;39015;48.106;-1.682;2023-02-21T14:27:04;13.30;74.80
25140;DHT22;39015;48.106;-1.682;2023-02-21T14:33:20;13.30;74.80
25140;DHT22;39015;48.106;-1.682;2023-02-21T14:35:58;13.30;74.90
25140;DHT22;39015;48.106;-1.682;2023-02-21T14:38:37;13.40;74.90
25140;DHT22;39015;48.106;-1.682;2023-02-21T14:41:19;13.40;75.10
25140;DHT22;39015;48.106;-1.682;2023-02-21T14:44:00;13.40;75.00
25140;DHT22;39015;48.106;-1.682;2023-02-21T14:46:42;13.40;75.00
25140;DHT22;39015;48.106;-1.682;2023-02-21T14:55:42;13.50;75.70
25140;DHT22;39015;48.106;-1.682;2023-02-21T15:01:25;13.60;75.30
25140;DHT22;39015;48.106;-1.682;2023-02-21T15:04:01;13.60;75.40
25140;DHT22;39015;48.106;-1.682;2023-02-21T15:06:31;13.60;75.30
25140;DHT22;39015;48.106;-1.682;2023-02-21T15:09:10;13.60;75.40
25140;DHT22;39015;48.106;-1.682;2023-02-21T15:11:39;13.60;75.30
25140;DHT22;39015;48.106;-1.682;2023-02-21T15:14:15;13.60;75.40
25140;DHT22;39015;48.106;-1.682;2023-02-21T15:16:49;13.70;75.40
25140;DHT22;39015;48.106;-1.682;2023-02-21T15:19:19;13.70;75.20
25140;DHT22;39015;48.106;-1.682;2023-02-21T15:22:00;13.70;75.70
25140;DHT22;39015;48.106;-1.682;2023-02-21T15:24:32;13.70;75.60
25140;DHT22;39015;48.106;-1.682;2023-02-21T15:27:09;13.70;75.60
25140;DHT22;39015;48.106;-1.682;2023-02-21T15:29:36;13.70;75.60
25140;DHT22;39015;48.106;-1.682;2023-02-21T15:32:05;13.70;75.70
25140;DHT22;39015;48.106;-1.682;2023-02-21T15:34:37;13.70;75.70
25140;DHT22;39015;48.106;-1.682;2023-02-21T15:37:13;13.70;75.60
25140;DHT22;39015;48.106;-1.682;2023-02-21T15:39:43;13.70;75.50
25140;DHT22;39015;48.106;-1.682;2023-02-21T15:42:16;13.80;75.70
25140;DHT22;39015;48.106;-1.682;2023-02-21T15:44:48;13.80;75.80
25140;DHT22;39015;48.106;-1.682;2023-02-21T15:47:19;13.70;75.70
25140;DHT22;39015;48.106;-1.682;2023-02-21T15:50:00;13.70;76.00
25140;DHT22;39015;48.106;-1.682;2023-02-21T15:52:34;13.70;76.30
25140;DHT22;39015;48.106;-1.682;2023-02-21T15:55:26;13.70;76.20
25140;DHT22;39015;48.106;-1.682;2023-02-21T15:58:00;13.70;76.40
25140;DHT22;39015;48.106;-1.682;2023-02-21T16:00:30;13.70;76.40
25140;DHT22;39015;48.106;-1.682;2023-02-21T16:03:26;13.80;76.40
25140;DHT22;39015;48.106;-1.682;2023-02-21T16:05:55;13.80;76.50
25140;DHT22;39015;48.106;-1.682;2023-02-21T16:08:35;13.80;76.40
25140;DHT22;39015;48.106;-1.682;2023-02-21T16:11:02;13.80;76.40
25140;DHT22;39015;48.106;-1.682;2023-02-21T16:13:35;13.80;76.40
25140;DHT22;39015;48.106;-1.682;2023-02-21T16:16:03;13.80;76.40
25140;DHT22;39015;48.106;-1.682;2023-02-21T16:18:31;13.80;76.40
25140;DHT22;39015;48.106;-1.682;2023-02-21T16:21:00;13.80;76.40
25140;DHT22;39015;48.106;-1.682;2023-02-21T16:23:30;13.80;76.50
25140;DHT22;39015;48.106;-1.682;2023-02-21T16:26:02;13.80;76.30
25140;DHT22;39015;48.106;-1.682;2023-02-21T16:28:46;13.80;76.40
25140;DHT22;39015;48.106;-1.682;2023-02-21T16:31:16;13.80;76.30
25140;DHT22;39015;48.106;-1.682;2023-02-21T16:33:50;13.80;76.40
25140;DHT22;39015;48.106;-1.682;2023-02-21T16:36:20;13.80;76.50
25140;DHT22;39015;48.106;-1.682;2023-02-21T16:38:48;13.90;76.60
25140;DHT22;39015;48.106;-1.682;2023-02-21T16:41:15;13.80;76.50
25140;DHT22;39015;48.106;-1.682;2023-02-21T16:43:45;13.80;76.60
25140;DHT22;39015;48.106;-1.682;2023-02-21T16:46:13;13.80;76.70
25140;DHT22;39015;48.106;-1.682;2023-02-21T16:48:41;13.80;76.60
25140;DHT22;39015;48.106;-1.682;2023-02-21T16:51:11;13.80;76.70
25140;DHT22;39015;48.106;-1.682;2023-02-21T16:53:40;13.80;76.60
25140;DHT22;39015;48.106;-1.682;2023-02-21T16:56:07;13.80;76.70
25140;DHT22;39015;48.106;-1.682;2023-02-21T16:58:37;13.80;76.80
25140;DHT22;39015;48.106;-1.682;2023-02-21T17:01:07;13.80;76.90
25140;DHT22;39015;48.106;-1.682;2023-02-21T17:03:37;13.80;77.00
25140;DHT22;39015;48.106;-1.682;2023-02-21T17:06:06;13.80;77.10
25140;DHT22;39015;48.106;-1.682;2023-02-21T17:08:34;13.80;77.10
25140;DHT22;39015;48.106;-1.682;2023-02-21T17:11:01;13.80;77.00
25140;DHT22;39015;48.106;-1.682;2023-02-21T17:13:28;13.80;77.10
25140;DHT22;39015;48.106;-1.682;2023-02-21T17:15:55;13.80;77.20
25140;DHT22;39015;48.106;-1.682;2023-02-21T17:18:24;13.80;77.30
25140;DHT22;39015;48.106;-1.682;2023-02-21T17:20:54;13.90;77.20
25140;DHT22;39015;48.106;-1.682;2023-02-21T17:23:22;13.80;77.30
25140;DHT22;39015;48.106;-1.682;2023-02-21T17:25:50;13.90;77.20
25140;DHT22;39015;48.106;-1.682;2023-02-21T17:28:18;13.90;77.10
25140;DHT22;39015;48.106;-1.682;2023-02-21T17:30:45;13.90;77.00
25140;DHT22;39015;48.106;-1.682;2023-02-21T17:33:13;13.90;77.00
25140;DHT22;39015;48.106;-1.682;2023-02-21T17:35:42;13.90;77.10
25140;DHT22;39015;48.106;-1.682;2023-02-21T17:38:10;13.90;77.20
25140;DHT22;39015;48.106;-1.682;2023-02-21T17:40:37;13.90;77.20
25140;DHT22;39015;48.106;-1.682;2023-02-21T17:43:04;13.90;77.10
25140;DHT22;39015;48.106;-1.682;2023-02-21T17:45:33;13.90;76.90
25140;DHT22;39015;48.106;-1.682;2023-02-21T17:48:02;14.00;76.90
25140;DHT22;39015;48.106;-1.682;2023-02-21T17:50:31;14.00;76.90
25140;DHT22;39015;48.106;-1.682;2023-02-21T17:53:01;14.00;76.80
25140;DHT22;39015;48.106;-1.682;2023-02-21T17:55:28;14.00;76.70
25140;DHT22;39015;48.106;-1.682;2023-02-21T17:57:55;14.00;76.60
25140;DHT22;39015;48.106;-1.682;2023-02-21T18:00:25;14.00;76.70
25140;DHT22;39015;48.106;-1.682;2023-02-21T18:02:53;13.90;76.80
25140;DHT22;39015;48.106;-1.682;2023-02-21T18:05:21;14.00;76.90
25140;DHT22;39015;48.106;-1.682;2023-02-21T18:07:48;14.00;76.90
25140;DHT22;39015;48.106;-1.682;2023-02-21T18:10:19;14.00;76.90
25140;DHT22;39015;48.106;-1.682;2023-02-21T18:12:47;14.00;77.50
25140;DHT22;39015;48.106;-1.682;2023-02-21T18:15:15;14.00;76.90
25140;DHT22;39015;48.106;-1.682;2023-02-21T18:17:42;14.00;76.80
25140;DHT22;39015;48.106;-1.682;2023-02-21T18:20:10;14.00;76.70
25140;DHT22;39015;48.106;-1.682;2023-02-21T18:22:39;14.10;76.80
25140;DHT22;39015;48.106;-1.682;2023-02-21T18:25:06;14.10;76.80
25140;DHT22;39015;48.106;-1.682;2023-02-21T18:27:35;14.10;76.60
25140;DHT22;39015;48.106;-1.682;2023-02-21T18:30:08;14.10;76.60
25140;DHT22;39015;48.106;-1.682;2023-02-21T18:32:38;14.10;76.60
25140;DHT22;39015;48.106;-1.682;2023-02-21T18:35:05;14.10;76.60
25140;DHT22;39015;48.106;-1.682;2023-02-21T18:37:32;14.10;76.60
25140;DHT22;39015;48.106;-1.682;2023-02-21T18:40:00;14.10;76.60
25140;DHT22;39015;48.106;-1.682;2023-02-21T18:42:28;14.10;76.70
25140;DHT22;39015;48.106;-1.682;2023-02-21T18:44:59;14.00;76.90
25140;DHT22;39015;48.106;-1.682;2023-02-21T18:47:26;14.00;76.80
25140;DHT22;39015;48.106;-1.682;2023-02-21T18:49:56;14.10;76.80
25140;DHT22;39015;48.106;-1.682;2023-02-21T18:52:26;14.10;76.60
25140;DHT22;39015;48.106;-1.682;2023-02-21T18:54:56;14.10;76.60
25140;DHT22;39015;48.106;-1.682;2023-02-21T18:57:29;14.10;76.50
25140;DHT22;39015;48.106;-1.682;2023-02-21T18:59:58;14.10;76.50
25140;DHT22;39015;48.106;-1.682;2023-02-21T19:02:25;14.10;76.50
25140;DHT22;39015;48.106;-1.682;2023-02-21T19:04:52;14.10;76.40
25140;DHT22;39015;48.106;-1.682;2023-02-21T19:07:19;14.10;76.50
25140;DHT22;39015;48.106;-1.682;2023-02-21T19:09:47;14.10;76.50
25140;DHT22;39015;48.106;-1.682;2023-02-21T19:12:14;14.10;76.50
25140;DHT22;39015;48.106;-1.682;2023-02-21T19:14:42;14.10;76.50
25140;DHT22;39015;48.106;-1.682;2023-02-21T19:17:10;14.10;76.50
25140;DHT22;39015;48.106;-1.682;2023-02-21T19:19:37;14.10;76.40
25140;DHT22;39015;48.106;-1.682;2023-02-21T19:22:05;14.10;76.50
25140;DHT22;39015;48.106;-1.682;2023-02-21T19:24:32;14.10;76.70
25140;DHT22;39015;48.106;-1.682;2023-02-21T19:27:00;14.10;76.80
25140;DHT22;39015;48.106;-1.682;2023-02-21T19:29:27;14.10;76.70
25140;DHT22;39015;48.106;-1.682;2023-02-21T19:31:54;14.00;76.70
25140;DHT22;39015;48.106;-1.682;2023-02-21T19:34:24;14.00;76.70
25140;DHT22;39015;48.106;-1.682;2023-02-21T19:36:55;14.10;76.70
25140;DHT22;39015;48.106;-1.682;2023-02-21T19:39:24;14.10;76.70
25140;DHT22;39015;48.106;-1.682;2023-02-21T19:41:52;14.10;76.60
25140;DHT22;39015;48.106;-1.682;2023-02-21T19:44:20;14.10;76.60
25140;DHT22;39015;48.106;-1.682;2023-02-21T19:46:47;14.10;76.60
25140;DHT22;39015;48.106;-1.682;2023-02-21T19:49:14;14.10;76.60
25140;DHT22;39015;48.106;-1.682;2023-02-21T19:51:47;14.10;76.60
25140;DHT22;39015;48.106;-1.682;2023-02-21T19:54:20;14.10;76.50
25140;DHT22;39015;48.106;-1.682;2023-02-21T19:56:50;14.10;76.60
25140;DHT22;39015;48.106;-1.682;2023-02-21T19:59:18;14.10;76.50
25140;DHT22;39015;48.106;-1.682;2023-02-21T20:01:46;14.00;76.60
25140;DHT22;39015;48.106;-1.682;2023-02-21T20:04:19;14.00;76.50
25140;DHT22;39015;48.106;-1.682;2023-02-21T20:06:51;14.00;76.50
25140;DHT22;39015;48.106;-1.682;2023-02-21T20:09:18;14.00;76.50
25140;DHT22;39015;48.106;-1.682;2023-02-21T20:11:45;14.00;76.50
25140;DHT22;39015;48.106;-1.682;2023-02-21T20:14:13;14.00;76.40
25140;DHT22;39015;48.106;-1.682;2023-02-21T20:16:43;14.00;76.50
25140;DHT22;39015;48.106;-1.682;2023-02-21T20:19:11;14.00;76.50
25140;DHT22;39015;48.106;-1.682;2023-02-21T20:21:39;14.00;76.50
25140;DHT22;39015;48.106;-1.682;2023-02-21T20:24:07;14.00;76.50
25140;DHT22;39015;48.106;-1.682;2023-02-21T20:26:34;14.00;76.40
25140;DHT22;39015;48.106;-1.682;2023-02-21T20:29:04;14.00;76.50
25140;DHT22;39015;48.106;-1.682;2023-02-21T20:31:32;14.00;76.50
25140;DHT22;39015;48.106;-1.682;2023-02-21T20:34:02;14.00;76.50
25140;DHT22;39015;48.106;-1.682;2023-02-21T20:36:32;14.00;76.50
25140;DHT22;39015;48.106;-1.682;2023-02-21T20:39:01;14.00;76.50
25140;DHT22;39015;48.106;-1.682;2023-02-21T20:41:32;14.00;76.60
25140;DHT22;39015;48.106;-1.682;2023-02-21T20:44:00;14.00;76.60
25140;DHT22;39015;48.106;-1.682;2023-02-21T20:46:27;14.00;76.60
25140;DHT22;39015;48.106;-1.682;2023-02-21T20:48:54;13.90;76.50
25140;DHT22;39015;48.106;-1.682;2023-02-21T20:51:27;13.90;77.40
25140;DHT22;39015;48.106;-1.682;2023-02-21T20:53:55;13.90;76.50
25140;DHT22;39015;48.106;-1.682;2023-02-21T20:56:30;13.90;76.50
25140;DHT22;39015;48.106;-1.682;2023-02-21T20:58:58;13.90;76.50
25140;DHT22;39015;48.106;-1.682;2023-02-21T21:01:26;13.90;76.50
25140;DHT22;39015;48.106;-1.682;2023-02-21T21:03:53;13.90;77.40
25140;DHT22;39015;48.106;-1.682;2023-02-21T21:06:22;13.90;76.50
25140;DHT22;39015;48.106;-1.682;2023-02-21T21:08:51;13.90;76.50
25140;DHT22;39015;48.106;-1.682;2023-02-21T21:11:18;13.90;76.50
25140;DHT22;39015;48.106;-1.682;2023-02-21T21:13:47;13.90;76.50
25140;DHT22;39015;48.106;-1.682;2023-02-21T21:16:16;13.80;76.40
25140;DHT22;39015;48.106;-1.682;2023-02-21T21:18:47;13.90;76.50
25140;DHT22;39015;48.106;-1.682;2023-02-21T21:21:14;13.90;76.50
25140;DHT22;39015;48.106;-1.682;2023-02-21T21:23:41;13.90;76.50
25140;DHT22;39015;48.106;-1.682;2023-02-21T21:26:08;13.80;76.50
25140;DHT22;39015;48.106;-1.682;2023-02-21T21:28:37;13.80;76.40
25140;DHT22;39015;48.106;-1.682;2023-02-21T21:31:07;13.80;76.40
25140;DHT22;39015;48.106;-1.682;2023-02-21T21:33:34;13.80;76.50
25140;DHT22;39015;48.106;-1.682;2023-02-21T21:36:01;13.80;76.40
25140;DHT22;39015;48.106;-1.682;2023-02-21T21:38:28;13.80;76.40
25140;DHT22;39015;48.106;-1.682;2023-02-21T21:40:56;13.80;76.50
25140;DHT22;39015;48.106;-1.682;2023-02-21T21:43:24;13.80;76.50
25140;DHT22;39015;48.106;-1.682;2023-02-21T21:45:52;13.70;76.40
25140;DHT22;39015;48.106;-1.682;2023-02-21T21:48:21;13.70;76.40
25140;DHT22;39015;48.106;-1.682;2023-02-21T21:50:49;13.70;76.50
25140;DHT22;39015;48.106;-1.682;2023-02-21T21:53:17;13.70;76.40
25140;DHT22;39015;48.106;-1.682;2023-02-21T21:56:05;13.70;76.40
25140;DHT22;39015;48.106;-1.682;2023-02-21T21:58:52;13.70;76.40
25140;DHT22;39015;48.106;-1.682;2023-02-21T22:01:39;13.70;76.30
25140;DHT22;39015;48.106;-1.682;2023-02-21T22:04:09;13.80;76.20
25140;DHT22;39015;48.106;-1.682;2023-02-21T22:06:39;13.80;76.10
25140;DHT22;39015;48.106;-1.682;2023-02-21T22:09:07;13.80;76.00
25140;DHT22;39015;48.106;-1.682;2023-02-21T22:11:41;13.80;76.00
25140;DHT22;39015;48.106;-1.682;2023-02-21T22:14:08;13.80;76.00
25140;DHT22;39015;48.106;-1.682;2023-02-21T22:16:37;13.80;76.00
25140;DHT22;39015;48.106;-1.682;2023-02-21T22:19:04;13.80;76.00
25140;DHT22;39015;48.106;-1.682;2023-02-21T22:21:34;13.80;75.90
25140;DHT22;39015;48.106;-1.682;2023-02-21T22:24:01;13.80;75.80
25140;DHT22;39015;48.106;-1.682;2023-02-21T22:26:37;13.80;75.80
25140;DHT22;39015;48.106;-1.682;2023-02-21T22:29:05;13.80;75.80
25140;DHT22;39015;48.106;-1.682;2023-02-21T22:31:33;13.80;75.80
25140;DHT22;39015;48.106;-1.682;2023-02-21T22:34:00;13.80;75.70
25140;DHT22;39015;48.106;-1.682;2023-02-21T22:36:28;13.80;75.60
25140;DHT22;39015;48.106;-1.682;2023-02-21T22:38:57;13.80;75.60
25140;DHT22;39015;48.106;-1.682;2023-02-21T22:41:33;13.80;75.60
25140;DHT22;39015;48.106;-1.682;2023-02-21T22:44:00;13.80;75.60
